sensor_id;sensor_type;location;lat;lon;timestamp;pressure;altitude;pressure_sealevel;temperature;humidity
45323;BME280;31382;50.200;8.674;2022-12-11T00:03:36;99862.72;;;0.65;67.06
45323;BME280;31382;50.200;8.674;2022-12-11T00:08:38;99869.09;;;0.73;66.24
45323;BME280;31382;50.200;8.674;2022-12-11T00:13:40;99866.66;;;0.82;66.55
45323;BME280;31382;50.200;8.674;2022-12-11T00:18:43;99863.25;;;0.91;66.93
45323;BME280;31382;50.200;8.674;2022-12-11T00:23:44;99865.53;;;0.95;66.31
45323;BME280;31382;50.200;8.674;2022-12-11T00:28:46;99855.16;;;1.04;67.04
45323;BME280;31382;50.200;8.674;2022-12-11T00:33:48;99853.69;;;1.11;66.90
45323;BME280;31382;50.200;8.674;2022-12-11T00:38:51;99855.81;;;1.17;66.84
45323;BME280;31382;50.200;8.674;2022-12-11T00:43:53;99869.63;;;1.21;66.56
45323;BME280;31382;50.200;8.674;2022-12-11T00:48:54;99872.47;;;1.29;66.05
45323;BME280;31382;50.200;8.674;2022-12-11T00:53:56;99864.72;;;1.37;66.99
45323;BME280;31382;50.200;8.674;2022-12-11T00:58:57;99868.69;;;1.43;66.43
45323;BME280;31382;50.200;8.674;2022-12-11T01:03:59;99862.50;;;1.42;67.13
45323;BME280;31382;50.200;8.674;2022-12-11T01:09:00;99868.09;;;1.39;66.88
45323;BME280;31382;50.200;8.674;2022-12-11T01:14:20;99872.56;;;1.38;67.03
45323;BME280;31382;50.200;8.674;2022-12-11T01:19:21;99881.31;;;1.39;67.15
45323;BME280;31382;50.200;8.674;2022-12-11T01:24:25;99869.69;;;1.30;66.50
45323;BME280;31382;50.200;8.674;2022-12-11T01:29:27;99868.22;;;1.37;66.91
45323;BME280;31382;50.200;8.674;2022-12-11T01:34:29;99855.44;;;1.43;66.78
45323;BME280;31382;50.200;8.674;2022-12-11T01:39:30;99866.28;;;1.39;66.84
45323;BME280;31382;50.200;8.674;2022-12-11T01:49:35;99858.97;;;1.53;66.12
45323;BME280;31382;50.200;8.674;2022-12-11T01:54:36;99857.88;;;1.55;66.93
45323;BME280;31382;50.200;8.674;2022-12-11T01:59:40;99869.03;;;1.59;66.94
45323;BME280;31382;50.200;8.674;2022-12-11T02:04:44;99862.00;;;1.69;66.77
45323;BME280;31382;50.200;8.674;2022-12-11T02:09:46;99864.00;;;1.77;66.62
45323;BME280;31382;50.200;8.674;2022-12-11T02:20:25;99853.84;;;1.82;66.56
45323;BME280;31382;50.200;8.674;2022-12-11T02:31:11;99863.88;;;1.78;67.44
45323;BME280;31382;50.200;8.674;2022-12-11T02:36:16;99868.00;;;1.71;67.55
45323;BME280;31382;50.200;8.674;2022-12-11T02:41:20;99874.09;;;1.62;67.44
45323;BME280;31382;50.200;8.674;2022-12-11T02:46:23;99875.88;;;1.62;67.89
45323;BME280;31382;50.200;8.674;2022-12-11T02:51:29;99874.81;;;1.64;67.93
45323;BME280;31382;50.200;8.674;2022-12-11T02:56:37;99873.50;;;1.58;67.47
45323;BME280;31382;50.200;8.674;2022-12-11T03:01:40;99869.44;;;1.54;67.68
45323;BME280;31382;50.200;8.674;2022-12-11T03:06:46;99858.50;;;1.48;67.84
45323;BME280;31382;50.200;8.674;2022-12-11T03:11:50;99862.44;;;1.53;67.97
45323;BME280;31382;50.200;8.674;2022-12-11T03:16:59;99870.88;;;1.58;67.89
45323;BME280;31382;50.200;8.674;2022-12-11T03:22:11;99870.28;;;1.55;67.63
45323;BME280;31382;50.200;8.674;2022-12-11T03:27:32;99865.56;;;1.58;67.28
45323;BME280;31382;50.200;8.674;2022-12-11T03:32:46;99863.75;;;1.59;68.43
45323;BME280;31382;50.200;8.674;2022-12-11T03:37:50;99849.41;;;1.62;67.37
45323;BME280;31382;50.200;8.674;2022-12-11T03:42:55;99863.09;;;1.67;67.96
45323;BME280;31382;50.200;8.674;2022-12-11T03:47:58;99865.75;;;1.67;67.82
45323;BME280;31382;50.200;8.674;2022-12-11T03:53:02;99865.34;;;1.71;67.40
45323;BME280;31382;50.200;8.674;2022-12-11T03:58:05;99862.00;;;1.69;68.16
45323;BME280;31382;50.200;8.674;2022-12-11T04:03:06;99856.81;;;1.68;67.69
45323;BME280;31382;50.200;8.674;2022-12-11T04:08:16;99862.28;;;1.66;68.11
45323;BME280;31382;50.200;8.674;2022-12-11T04:13:17;99853.63;;;1.64;68.22
45323;BME280;31382;50.200;8.674;2022-12-11T04:18:19;99853.75;;;1.63;67.48
45323;BME280;31382;50.200;8.674;2022-12-11T04:23:39;99856.25;;;1.64;67.53
45323;BME280;31382;50.200;8.674;2022-12-11T04:29:13;99860.03;;;1.71;68.02
45323;BME280;31382;50.200;8.674;2022-12-11T04:34:15;99854.75;;;1.71;68.09
45323;BME280;31382;50.200;8.674;2022-12-11T04:39:17;99854.50;;;1.74;67.48
45323;BME280;31382;50.200;8.674;2022-12-11T04:44:18;99855.34;;;1.75;68.51
45323;BME280;31382;50.200;8.674;2022-12-11T04:49:19;99849.72;;;1.68;68.32
45323;BME280;31382;50.200;8.674;2022-12-11T04:54:21;99860.56;;;1.65;67.75
45323;BME280;31382;50.200;8.674;2022-12-11T04:59:22;99860.56;;;1.65;68.68
45323;BME280;31382;50.200;8.674;2022-12-11T05:04:24;99846.38;;;1.66;67.65
45323;BME280;31382;50.200;8.674;2022-12-11T05:09:26;99840.78;;;1.69;67.99
45323;BME280;31382;50.200;8.674;2022-12-11T05:14:27;99839.38;;;1.65;68.24
45323;BME280;31382;50.200;8.674;2022-12-11T05:19:32;99836.03;;;1.63;67.87
45323;BME280;31382;50.200;8.674;2022-12-11T05:24:33;99832.97;;;1.68;68.69
45323;BME280;31382;50.200;8.674;2022-12-11T05:29:35;99828.84;;;1.75;67.86
45323;BME280;31382;50.200;8.674;2022-12-11T05:34:36;99828.13;;;1.73;68.32
45323;BME280;31382;50.200;8.674;2022-12-11T05:39:38;99826.31;;;1.73;68.29
45323;BME280;31382;50.200;8.674;2022-12-11T05:44:39;99836.72;;;1.86;68.43
45323;BME280;31382;50.200;8.674;2022-12-11T05:49:40;99837.84;;;1.93;68.74
45323;BME280;31382;50.200;8.674;2022-12-11T05:54:42;99843.47;;;2.00;68.88
45323;BME280;31382;50.200;8.674;2022-12-11T05:59:43;99832.31;;;2.06;68.38
45323;BME280;31382;50.200;8.674;2022-12-11T06:04:45;99828.97;;;2.04;68.49
45323;BME280;31382;50.200;8.674;2022-12-11T06:09:46;99807.22;;;2.10;68.46
45323;BME280;31382;50.200;8.674;2022-12-11T06:14:48;99811.28;;;2.14;68.61
45323;BME280;31382;50.200;8.674;2022-12-11T06:19:49;99807.66;;;2.15;68.25
45323;BME280;31382;50.200;8.674;2022-12-11T06:24:50;99811.00;;;2.17;68.12
45323;BME280;31382;50.200;8.674;2022-12-11T06:29:52;99813.38;;;2.21;68.48
45323;BME280;31382;50.200;8.674;2022-12-11T06:34:53;99811.00;;;2.17;68.19
45323;BME280;31382;50.200;8.674;2022-12-11T06:39:55;99811.00;;;2.17;68.94
45323;BME280;31382;50.200;8.674;2022-12-11T06:44:56;99801.66;;;2.23;68.64
45323;BME280;31382;50.200;8.674;2022-12-11T06:49:59;99806.41;;;2.20;68.27
45323;BME280;31382;50.200;8.674;2022-12-11T06:55:02;99801.22;;;2.08;68.10
45323;BME280;31382;50.200;8.674;2022-12-11T07:00:04;99805.38;;;2.11;68.60
45323;BME280;31382;50.200;8.674;2022-12-11T07:05:06;99811.00;;;2.17;68.28
45323;BME280;31382;50.200;8.674;2022-12-11T07:10:08;99810.34;;;2.25;67.90
45323;BME280;31382;50.200;8.674;2022-12-11T07:15:10;99817.75;;;2.31;68.71
45323;BME280;31382;50.200;8.674;2022-12-11T07:20:11;99826.97;;;2.37;67.79
45323;BME280;31382;50.200;8.674;2022-12-11T07:25:13;99815.38;;;2.38;68.51
45323;BME280;31382;50.200;8.674;2022-12-11T07:30:15;99820.25;;;2.43;68.25
45323;BME280;31382;50.200;8.674;2022-12-11T07:35:16;99812.31;;;2.43;68.12
45323;BME280;31382;50.200;8.674;2022-12-11T07:40:17;99822.53;;;2.47;67.78
45323;BME280;31382;50.200;8.674;2022-12-11T07:45:19;99832.84;;;2.50;67.76
45323;BME280;31382;50.200;8.674;2022-12-11T07:50:20;99829.22;;;2.51;67.93
45323;BME280;31382;50.200;8.674;2022-12-11T07:55:22;99834.53;;;2.51;68.04
45323;BME280;31382;50.200;8.674;2022-12-11T08:00:23;99832.44;;;2.55;67.77
45323;BME280;31382;50.200;8.674;2022-12-11T08:05:25;99844.72;;;2.56;67.69
45323;BME280;31382;50.200;8.674;2022-12-11T08:10:26;99838.03;;;2.62;67.45
45323;BME280;31382;50.200;8.674;2022-12-11T08:15:28;99839.84;;;2.61;68.15
45323;BME280;31382;50.200;8.674;2022-12-11T08:20:29;99843.59;;;2.58;68.28
45323;BME280;31382;50.200;8.674;2022-12-11T08:25:31;99838.84;;;2.52;67.72
45323;BME280;31382;50.200;8.674;2022-12-11T08:30:33;99835.13;;;2.65;67.74
45323;BME280;31382;50.200;8.674;2022-12-11T08:35:37;99837.22;;;2.71;67.88
45323;BME280;31382;50.200;8.674;2022-12-11T08:40:40;99834.00;;;2.77;67.68
45323;BME280;31382;50.200;8.674;2022-12-11T08:45:41;99823.66;;;2.74;67.63
45323;BME280;31382;50.200;8.674;2022-12-11T08:50:43;99823.66;;;2.84;67.66
45323;BME280;31382;50.200;8.674;2022-12-11T08:55:44;99825.88;;;2.88;67.43
45323;BME280;31382;50.200;8.674;2022-12-11T09:00:45;99827.31;;;2.83;68.00
45323;BME280;31382;50.200;8.674;2022-12-11T09:05:47;99831.34;;;2.77;68.20
45323;BME280;31382;50.200;8.674;2022-12-11T09:10:48;99831.75;;;2.82;67.49
45323;BME280;31382;50.200;8.674;2022-12-11T09:15:49;99836.81;;;2.85;67.85
45323;BME280;31382;50.200;8.674;2022-12-11T09:21:02;99836.09;;;2.83;67.80
45323;BME280;31382;50.200;8.674;2022-12-11T09:26:05;99831.06;;;2.80;67.56
45323;BME280;31382;50.200;8.674;2022-12-11T09:31:09;99835.41;;;2.81;67.71
45323;BME280;31382;50.200;8.674;2022-12-11T09:36:11;99839.31;;;2.87;67.89
45323;BME280;31382;50.200;8.674;2022-12-11T09:46:23;99829.09;;;3.11;67.62
45323;BME280;31382;50.200;8.674;2022-12-11T09:51:31;99823.41;;;3.16;67.32
45323;BME280;31382;50.200;8.674;2022-12-11T10:02:28;99812.72;;;3.26;67.52
45323;BME280;31382;50.200;8.674;2022-12-11T10:18:00;99809.38;;;3.33;67.21
45323;BME280;31382;50.200;8.674;2022-12-11T10:23:08;99811.19;;;3.33;67.00
45323;BME280;31382;50.200;8.674;2022-12-11T10:28:14;99814.41;;;3.36;66.84
45323;BME280;31382;50.200;8.674;2022-12-11T10:33:21;99814.09;;;3.40;67.08
45323;BME280;31382;50.200;8.674;2022-12-11T10:38:27;99810.06;;;3.35;67.12
45323;BME280;31382;50.200;8.674;2022-12-11T10:43:37;99807.56;;;3.34;66.83
45323;BME280;31382;50.200;8.674;2022-12-11T10:48:57;99801.56;;;3.32;66.70
45323;BME280;31382;50.200;8.674;2022-12-11T10:54:30;99802.41;;;3.32;67.11
45323;BME280;31382;50.200;8.674;2022-12-11T10:59:47;99790.94;;;3.32;66.79
45323;BME280;31382;50.200;8.674;2022-12-11T11:04:49;99781.53;;;3.37;66.99
45323;BME280;31382;50.200;8.674;2022-12-11T11:15:17;99762.94;;;3.37;66.83
45323;BME280;31382;50.200;8.674;2022-12-11T11:20:25;99764.63;;;3.38;66.60
45323;BME280;31382;50.200;8.674;2022-12-11T11:25:29;99763.59;;;3.49;66.72
45323;BME280;31382;50.200;8.674;2022-12-11T11:30:35;99752.84;;;3.51;66.47
45323;BME280;31382;50.200;8.674;2022-12-11T11:35:37;99753.09;;;3.57;66.66
45323;BME280;31382;50.200;8.674;2022-12-11T11:40:50;99746.66;;;3.60;66.24
45323;BME280;31382;50.200;8.674;2022-12-11T11:46:01;99746.06;;;3.66;66.16
45323;BME280;31382;50.200;8.674;2022-12-11T11:51:20;99740.72;;;3.76;66.21
45323;BME280;31382;50.200;8.674;2022-12-11T11:56:26;99731.19;;;3.83;66.15
45323;BME280;31382;50.200;8.674;2022-12-11T12:01:29;99733.06;;;3.91;65.68
45323;BME280;31382;50.200;8.674;2022-12-11T12:12:14;99730.63;;;3.80;65.54
45323;BME280;31382;50.200;8.674;2022-12-11T12:33:29;99719.03;;;3.71;65.19
45323;BME280;31382;50.200;8.674;2022-12-11T12:38:50;99720.59;;;3.73;65.30
45323;BME280;31382;50.200;8.674;2022-12-11T12:44:12;99723.38;;;3.72;65.13
45323;BME280;31382;50.200;8.674;2022-12-11T12:49:35;99732.78;;;3.66;65.34
45323;BME280;31382;50.200;8.674;2022-12-11T12:54:39;99723.97;;;3.66;65.39
45323;BME280;31382;50.200;8.674;2022-12-11T12:59:52;99721.31;;;3.66;65.29
45323;BME280;31382;50.200;8.674;2022-12-11T13:05:20;99709.56;;;3.68;65.31
45323;BME280;31382;50.200;8.674;2022-12-11T13:10:37;99706.66;;;3.62;65.13
45323;BME280;31382;50.200;8.674;2022-12-11T13:15:40;99708.84;;;3.66;65.26
45323;BME280;31382;50.200;8.674;2022-12-11T13:20:46;99709.41;;;3.70;65.14
45323;BME280;31382;50.200;8.674;2022-12-11T13:25:54;99721.50;;;3.54;65.35
45323;BME280;31382;50.200;8.674;2022-12-11T13:31:02;99722.13;;;3.38;65.52
45323;BME280;31382;50.200;8.674;2022-12-11T13:36:31;99722.16;;;3.29;65.18
45323;BME280;31382;50.200;8.674;2022-12-11T13:41:35;99731.41;;;3.15;65.29
45323;BME280;31382;50.200;8.674;2022-12-11T13:46:38;99725.53;;;3.21;64.77
45323;BME280;31382;50.200;8.674;2022-12-11T13:51:50;99717.28;;;3.24;65.14
45323;BME280;31382;50.200;8.674;2022-12-11T14:07:28;99737.91;;;2.83;65.44
45323;BME280;31382;50.200;8.674;2022-12-11T14:12:31;99722.94;;;2.92;65.31
45323;BME280;31382;50.200;8.674;2022-12-11T14:17:34;99720.56;;;2.98;64.97
45323;BME280;31382;50.200;8.674;2022-12-11T14:22:36;99725.88;;;2.98;65.13
45323;BME280;31382;50.200;8.674;2022-12-11T14:27:47;99721.97;;;2.93;65.20
45323;BME280;31382;50.200;8.674;2022-12-11T14:32:50;99722.34;;;2.98;64.72
45323;BME280;31382;50.200;8.674;2022-12-11T14:37:53;99731.00;;;3.00;64.59
45323;BME280;31382;50.200;8.674;2022-12-11T14:42:58;99740.66;;;3.11;64.21
45323;BME280;31382;50.200;8.674;2022-12-11T14:48:11;99738.53;;;3.24;63.89
45323;BME280;31382;50.200;8.674;2022-12-11T14:53:20;99744.53;;;3.26;64.44
45323;BME280;31382;50.200;8.674;2022-12-11T14:58:24;99751.94;;;3.32;64.27
45323;BME280;31382;50.200;8.674;2022-12-11T15:03:34;99751.69;;;3.16;64.82
45323;BME280;31382;50.200;8.674;2022-12-11T15:08:37;99752.25;;;3.10;64.53
45323;BME280;31382;50.200;8.674;2022-12-11T15:13:59;99749.59;;;3.10;64.53
45323;BME280;31382;50.200;8.674;2022-12-11T15:19:03;99749.19;;;3.05;64.60
45323;BME280;31382;50.200;8.674;2022-12-11T15:24:05;99754.63;;;3.03;65.11
45323;BME280;31382;50.200;8.674;2022-12-11T15:29:29;99756.31;;;3.04;64.96
45323;BME280;31382;50.200;8.674;2022-12-11T15:34:51;99760.78;;;3.04;64.90
45323;BME280;31382;50.200;8.674;2022-12-11T15:39:55;99767.22;;;2.91;64.83
45323;BME280;31382;50.200;8.674;2022-12-11T15:44:57;99767.94;;;2.84;65.21
45323;BME280;31382;50.200;8.674;2022-12-11T15:50:14;99768.34;;;2.79;65.86
45323;BME280;31382;50.200;8.674;2022-12-11T15:55:17;99762.34;;;2.77;65.77
45323;BME280;31382;50.200;8.674;2022-12-11T16:00:20;99770.19;;;2.69;65.76
45323;BME280;31382;50.200;8.674;2022-12-11T16:05:23;99773.38;;;2.53;65.78
45323;BME280;31382;50.200;8.674;2022-12-11T16:10:25;99777.69;;;2.54;65.58
45323;BME280;31382;50.200;8.674;2022-12-11T16:15:27;99781.06;;;2.66;65.75
45323;BME280;31382;50.200;8.674;2022-12-11T16:20:30;99786.38;;;2.75;65.22
45323;BME280;31382;50.200;8.674;2022-12-11T16:25:32;99785.09;;;2.70;65.79
45323;BME280;31382;50.200;8.674;2022-12-11T16:30:35;99785.25;;;2.78;65.75
45323;BME280;31382;50.200;8.674;2022-12-11T16:35:37;99774.06;;;2.84;65.31
45323;BME280;31382;50.200;8.674;2022-12-11T16:40:38;99773.81;;;2.68;65.67
45323;BME280;31382;50.200;8.674;2022-12-11T16:45:41;99781.19;;;2.64;66.48
45323;BME280;31382;50.200;8.674;2022-12-11T16:50:43;99774.78;;;2.57;66.34
45323;BME280;31382;50.200;8.674;2022-12-11T16:55:44;99776.59;;;2.66;66.52
45323;BME280;31382;50.200;8.674;2022-12-11T17:00:46;99777.00;;;2.62;66.60
45323;BME280;31382;50.200;8.674;2022-12-11T17:05:48;99768.50;;;2.68;66.57
45323;BME280;31382;50.200;8.674;2022-12-11T17:10:50;99765.28;;;2.74;67.06
45323;BME280;31382;50.200;8.674;2022-12-11T17:15:52;99760.66;;;2.76;67.41
45323;BME280;31382;50.200;8.674;2022-12-11T17:20:53;99753.69;;;2.75;67.24
45323;BME280;31382;50.200;8.674;2022-12-11T17:25:55;99759.41;;;2.80;67.91
45323;BME280;31382;50.200;8.674;2022-12-11T17:30:57;99759.00;;;2.75;67.92
45323;BME280;31382;50.200;8.674;2022-12-11T17:36:00;99750.75;;;2.78;68.17
45323;BME280;31382;50.200;8.674;2022-12-11T17:41:09;99750.19;;;2.84;67.86
45323;BME280;31382;50.200;8.674;2022-12-11T17:46:20;99750.16;;;2.94;67.49
45323;BME280;31382;50.200;8.674;2022-12-11T17:51:21;99746.94;;;3.00;67.05
45323;BME280;31382;50.200;8.674;2022-12-11T17:56:26;99740.94;;;2.98;67.66
45323;BME280;31382;50.200;8.674;2022-12-11T18:01:27;99741.09;;;2.96;68.40
45323;BME280;31382;50.200;8.674;2022-12-11T18:06:29;99742.06;;;2.95;68.17
45323;BME280;31382;50.200;8.674;2022-12-11T18:11:31;99743.47;;;2.90;68.64
45323;BME280;31382;50.200;8.674;2022-12-11T18:16:35;99740.81;;;2.90;68.60
45323;BME280;31382;50.200;8.674;2022-12-11T18:21:41;99744.75;;;2.86;68.41
45323;BME280;31382;50.200;8.674;2022-12-11T18:26:42;99743.19;;;2.93;68.06
45323;BME280;31382;50.200;8.674;2022-12-11T18:31:44;99751.72;;;2.87;68.49
45323;BME280;31382;50.200;8.674;2022-12-11T18:36:45;99745.72;;;2.85;68.89
45323;BME280;31382;50.200;8.674;2022-12-11T18:41:47;99739.16;;;2.79;68.51
45323;BME280;31382;50.200;8.674;2022-12-11T18:47:08;99742.66;;;2.70;68.96
45323;BME280;31382;50.200;8.674;2022-12-11T18:52:09;99749.09;;;2.57;69.61
45323;BME280;31382;50.200;8.674;2022-12-11T18:57:11;99747.13;;;2.69;69.57
45323;BME280;31382;50.200;8.674;2022-12-11T19:02:12;99741.13;;;2.67;69.70
45323;BME280;31382;50.200;8.674;2022-12-11T19:07:14;99745.59;;;2.67;69.03
45323;BME280;31382;50.200;8.674;2022-12-11T19:12:15;99751.59;;;2.59;69.26
45323;BME280;31382;50.200;8.674;2022-12-11T19:17:17;99740.84;;;2.61;69.90
45323;BME280;31382;50.200;8.674;2022-12-11T19:22:18;99732.47;;;2.55;69.55
45323;BME280;31382;50.200;8.674;2022-12-11T19:27:20;99735.81;;;2.57;69.56
45323;BME280;31382;50.200;8.674;2022-12-11T19:32:21;99741.69;;;2.51;69.96
45323;BME280;31382;50.200;8.674;2022-12-11T19:37:23;99742.38;;;2.53;70.06
45323;BME280;31382;50.200;8.674;2022-12-11T19:42:25;99744.34;;;2.51;69.76
45323;BME280;31382;50.200;8.674;2022-12-11T19:47:26;99746.16;;;2.41;70.17
45323;BME280;31382;50.200;8.674;2022-12-11T19:52:28;99750.34;;;2.44;70.27
45323;BME280;31382;50.200;8.674;2022-12-11T19:57:33;99752.84;;;2.45;70.21
45323;BME280;31382;50.200;8.674;2022-12-11T20:02:34;99751.31;;;2.52;70.72
45323;BME280;31382;50.200;8.674;2022-12-11T20:07:36;99754.25;;;2.49;70.44
45323;BME280;31382;50.200;8.674;2022-12-11T20:12:37;99737.47;;;2.58;70.10
45323;BME280;31382;50.200;8.674;2022-12-11T20:17:38;99737.91;;;2.64;70.68
45323;BME280;31382;50.200;8.674;2022-12-11T20:22:44;99741.81;;;2.69;69.82
45323;BME280;31382;50.200;8.674;2022-12-11T20:27:46;99744.47;;;2.69;70.44
45323;BME280;31382;50.200;8.674;2022-12-11T20:32:51;99746.88;;;2.63;70.33
45323;BME280;31382;50.200;8.674;2022-12-11T20:37:53;99741.13;;;2.67;70.44
45323;BME280;31382;50.200;8.674;2022-12-11T20:42:54;99741.00;;;2.78;70.46
45323;BME280;31382;50.200;8.674;2022-12-11T20:47:55;99735.50;;;2.90;70.46
45323;BME280;31382;50.200;8.674;2022-12-11T20:52:57;99742.91;;;2.96;69.69
45323;BME280;31382;50.200;8.674;2022-12-11T20:57:58;99737.19;;;3.01;70.21
45323;BME280;31382;50.200;8.674;2022-12-11T21:03:00;99735.81;;;2.96;69.96
45323;BME280;31382;50.200;8.674;2022-12-11T21:08:01;99737.19;;;3.01;70.21
45323;BME280;31382;50.200;8.674;2022-12-11T21:13:03;99735.63;;;2.98;70.46
45323;BME280;31382;50.200;8.674;2022-12-11T21:18:05;99735.09;;;2.94;70.05
45323;BME280;31382;50.200;8.674;2022-12-11T21:23:07;99724.88;;;2.90;70.02
45323;BME280;31382;50.200;8.674;2022-12-11T21:28:08;99728.41;;;2.90;70.10
45323;BME280;31382;50.200;8.674;2022-12-11T21:33:10;99730.19;;;2.90;70.13
45323;BME280;31382;50.200;8.674;2022-12-11T21:38:11;99727.69;;;2.88;70.70
45323;BME280;31382;50.200;8.674;2022-12-11T21:43:13;99733.97;;;2.87;70.11
45323;BME280;31382;50.200;8.674;2022-12-11T21:48:15;99733.28;;;2.85;70.38
45323;BME280;31382;50.200;8.674;2022-12-11T21:53:16;99736.38;;;2.81;70.70
45323;BME280;31382;50.200;8.674;2022-12-11T21:58:18;99743.78;;;2.77;70.87
45323;BME280;31382;50.200;8.674;2022-12-11T22:03:19;99746.56;;;2.75;70.80
45323;BME280;31382;50.200;8.674;2022-12-11T22:08:20;99746.31;;;2.69;71.12
45323;BME280;31382;50.200;8.674;2022-12-11T22:13:22;99740.13;;;2.68;71.22
45323;BME280;31382;50.200;8.674;2022-12-11T22:18:23;99746.00;;;2.72;70.67
45323;BME280;31382;50.200;8.674;2022-12-11T22:23:28;99743.47;;;2.70;70.58
45323;BME280;31382;50.200;8.674;2022-12-11T22:28:29;99748.25;;;2.67;70.46
45323;BME280;31382;50.200;8.674;2022-12-11T22:33:31;99750.91;;;2.67;71.09
45323;BME280;31382;50.200;8.674;2022-12-11T22:38:33;99746.44;;;2.67;70.73
45323;BME280;31382;50.200;8.674;2022-12-11T22:43:34;99754.41;;;2.67;71.15
45323;BME280;31382;50.200;8.674;2022-12-11T22:48:36;99753.13;;;2.62;71.33
45323;BME280;31382;50.200;8.674;2022-12-11T22:53:37;99757.88;;;2.58;70.76
45323;BME280;31382;50.200;8.674;2022-12-11T22:58:39;99755.53;;;2.55;70.89
45323;BME280;31382;50.200;8.674;2022-12-11T23:03:41;99754.13;;;2.51;71.53
45323;BME280;31382;50.200;8.674;2022-12-11T23:08:42;99754.66;;;2.54;71.10
45323;BME280;31382;50.200;8.674;2022-12-11T23:13:44;99756.63;;;2.52;71.42
45323;BME280;31382;50.200;8.674;2022-12-11T23:18:46;99762.63;;;2.54;71.07
45323;BME280;31382;50.200;8.674;2022-12-11T23:23:48;99758.88;;;2.57;71.69
45323;BME280;31382;50.200;8.674;2022-12-11T23:28:49;99761.09;;;2.62;71.20
45323;BME280;31382;50.200;8.674;2022-12-11T23:33:51;99755.09;;;2.60;71.72
45323;BME280;31382;50.200;8.674;2022-12-11T23:38:53;99760.13;;;2.63;71.43
45323;BME280;31382;50.200;8.674;2022-12-11T23:43:55;99769.75;;;2.64;71.11
45323;BME280;31382;50.200;8.674;2022-12-11T23:48:56;99765.44;;;2.63;71.15
45323;BME280;31382;50.200;8.674;2022-12-11T23:53:58;99768.09;;;2.63;71.60
45323;BME280;31382;50.200;8.674;2022-12-11T23:58:59;99764.44;;;2.64;71.09
